Time;durP1;ratioP1;P1;durP2;ratioP2;P2;SDS_P1;SDS_P2;PMS_P1;PMS_P2;Temp;Humidity;BMP_temperature;BMP_pressure;BME280_temperature;BME280_humidity;BME280_pressure;Samples;Min_cycle;Max_cycle;Signal;HPM_P1;HPM_P2
2021/04/02 00:01:17;;;;;;;4.23;2.60;;;;;;;;;;5018813;28;20760;-76
2021/04/02 00:03:43;;;;;;;7.57;3.17;;;;;;;;;;5022816;28;20411;-75
2021/04/02 00:06:10;;;;;;;12.20;3.77;;;;;;;;;;5024863;28;20458;-75
2021/04/02 00:08:36;;;;;;;6.80;3.57;;;;;;;;;;5028524;28;20479;-75
2021/04/02 00:11:05;;;;;;;12.90;3.60;;;;;;;;;;5038951;28;20412;-76
2021/04/02 00:13:34;;;;;;;6.33;2.87;;;;;;;;;;5038877;28;20384;-75
2021/04/02 00:16:00;;;;;;;6.77;3.63;;;;;;;;;;5020404;28;20400;-75
2021/04/02 00:18:27;;;;;;;8.87;3.40;;;;;;;;;;5020005;28;20478;-75
2021/04/02 00:20:53;;;;;;;8.90;3.20;;;;;;;;;;5018667;28;20519;-75
2021/04/02 00:23:20;;;;;;;4.67;3.50;;;;;;;;;;5019312;28;20427;-74
2021/04/02 00:25:46;;;;;;;7.43;3.60;;;;;;;;;;5020382;28;20403;-74
2021/04/02 00:28:12;;;;;;;6.83;3.53;;;;;;;;;;5019300;28;20427;-75
2021/04/02 00:30:38;;;;;;;7.93;3.40;;;;;;;;;;5019810;28;20430;-74
2021/04/02 00:33:05;;;;;;;5.27;3.87;;;;;;;;;;5019015;28;20427;-74
2021/04/02 00:35:32;;;;;;;11.23;4.93;;;;;;;;;;5019682;28;20416;-75
2021/04/02 00:37:58;;;;;;;5.87;4.53;;;;;;;;;;5023206;28;20517;-75
2021/04/02 00:40:34;;;;;;;5.87;3.73;;;;;;;;;;5026069;28;20431;-74
2021/04/02 00:43:00;;;;;;;7.47;4.00;;;;;;;;;;5025369;28;20458;-74
2021/04/02 00:45:26;;;;;;;6.90;3.90;;;;;;;;;;5025032;28;20412;-75
2021/04/02 00:47:54;;;;;;;11.37;4.50;;;;;;;;;;5023826;28;20435;-74
2021/04/02 00:50:22;;;;;;;10.93;3.57;;;;;;;;;;5024797;28;20434;-74
2021/04/02 00:52:48;;;;;;;7.57;3.90;;;;;;;;;;5022241;28;20453;-74
2021/04/02 00:55:15;;;;;;;8.40;4.67;;;;;;;;;;5025194;28;20410;-74
2021/04/02 00:57:41;;;;;;;7.17;3.80;;;;;;;;;;5023793;28;20433;-74
2021/04/02 01:00:09;;;;;;;8.20;4.70;;;;;;;;;;5025124;28;20454;-74
2021/04/02 01:02:35;;;;;;;10.00;4.03;;;;;;;;;;5024369;28;20424;-75
2021/04/02 01:05:01;;;;;;;7.20;4.20;;;;;;;;;;5025146;28;20847;-74
2021/04/02 01:07:28;;;;;;;7.20;3.40;;;;;;;;;;5022318;28;20513;-75
2021/04/02 01:09:54;;;;;;;8.07;3.37;;;;;;;;;;5023996;28;20464;-74
2021/04/02 01:12:20;;;;;;;6.13;3.80;;;;;;;;;;5022306;28;20926;-74
2021/04/02 01:14:46;;;;;;;13.27;4.27;;;;;;;;;;5023183;28;20400;-74
2021/04/02 01:17:12;;;;;;;4.80;3.70;;;;;;;;;;5024121;28;21017;-75
2021/04/02 01:19:50;;;;;;;7.37;4.27;;;;;;;;;;5026552;28;20463;-74
2021/04/02 01:22:17;;;;;;;14.80;4.87;;;;;;;;;;5024642;28;20435;-74
2021/04/02 01:24:49;;;;;;;12.43;4.17;;;;;;;;;;5024901;28;20503;-74
2021/04/02 01:27:15;;;;;;;9.77;4.60;;;;;;;;;;5018932;28;20442;-75
2021/04/02 01:29:46;;;;;;;7.90;5.20;;;;;;;;;;5012409;28;20503;-75
2021/04/02 01:32:21;;;;;;;7.83;6.10;;;;;;;;;;5022480;28;20443;-75
2021/04/02 01:34:49;;;;;;;11.93;4.80;;;;;;;;;;5023667;28;20420;-74
2021/04/02 01:37:38;;;;;;;8.00;4.67;;;;;;;;;;5022171;28;20522;-75
2021/04/02 01:40:06;;;;;;;10.37;4.80;;;;;;;;;;5013885;28;20479;-75
2021/04/02 01:42:34;;;;;;;8.80;4.37;;;;;;;;;;5017472;28;20459;-74
2021/04/02 01:45:00;;;;;;;6.70;5.10;;;;;;;;;;5019684;28;20987;-74
2021/04/02 01:47:27;;;;;;;10.33;6.27;;;;;;;;;;5018560;28;20450;-75
2021/04/02 01:49:54;;;;;;;8.70;5.30;;;;;;;;;;5019191;28;20436;-75
2021/04/02 01:52:22;;;;;;;13.30;6.33;;;;;;;;;;5019066;28;20815;-75
2021/04/02 01:54:48;;;;;;;8.13;4.80;;;;;;;;;;5020463;28;20767;-74
2021/04/02 01:57:16;;;;;;;10.63;6.30;;;;;;;;;;5019778;28;20399;-75
2021/04/02 01:59:43;;;;;;;8.57;4.63;;;;;;;;;;5022069;28;20573;-74
2021/04/02 02:02:09;;;;;;;7.30;4.77;;;;;;;;;;5021060;28;20427;-75
2021/04/02 02:04:35;;;;;;;8.30;5.70;;;;;;;;;;5018710;28;20446;-74
2021/04/02 02:07:02;;;;;;;11.63;6.47;;;;;;;;;;5018237;28;20407;-74
2021/04/02 02:09:30;;;;;;;9.10;5.13;;;;;;;;;;5017368;28;20487;-74
2021/04/02 02:11:57;;;;;;;12.33;6.20;;;;;;;;;;5017502;28;20423;-74
2021/04/02 02:14:25;;;;;;;19.67;7.37;;;;;;;;;;5016294;28;20809;-74
2021/04/02 02:16:53;;;;;;;10.50;6.80;;;;;;;;;;5018666;28;20408;-74
2021/04/02 02:19:21;;;;;;;8.80;6.40;;;;;;;;;;5016198;28;20486;-73
2021/04/02 02:21:48;;;;;;;18.43;6.60;;;;;;;;;;5018713;28;20759;-75
2021/04/02 02:24:15;;;;;;;9.60;6.60;;;;;;;;;;5018313;28;20438;-75
2021/04/02 02:26:41;;;;;;;10.40;6.50;;;;;;;;;;5014598;28;20942;-74
2021/04/02 02:29:08;;;;;;;16.23;8.33;;;;;;;;;;5015245;28;20447;-74
2021/04/02 02:31:34;;;;;;;14.80;7.47;;;;;;;;;;5022584;28;20419;-74
2021/04/02 02:34:01;;;;;;;18.27;8.30;;;;;;;;;;5024457;28;20443;-75
2021/04/02 02:36:28;;;;;;;13.67;8.47;;;;;;;;;;5031669;28;20455;-74
2021/04/02 02:38:55;;;;;;;16.73;8.00;;;;;;;;;;5037777;28;20538;-75
2021/04/02 02:41:21;;;;;;;12.93;7.30;;;;;;;;;;5029552;28;20403;-75
2021/04/02 02:43:50;;;;;;;13.73;7.60;;;;;;;;;;5016643;28;20431;-75
2021/04/02 02:46:16;;;;;;;12.57;7.53;;;;;;;;;;5017217;28;20438;-74
2021/04/02 02:48:50;;;;;;;14.60;8.47;;;;;;;;;;5016648;28;20775;-75
2021/04/02 02:51:17;;;;;;;15.37;7.90;;;;;;;;;;5016933;28;20800;-74
2021/04/02 02:53:43;;;;;;;15.23;8.20;;;;;;;;;;5016451;28;20431;-75
2021/04/02 02:56:10;;;;;;;14.67;7.77;;;;;;;;;;5017635;28;20415;-74
2021/04/02 02:58:39;;;;;;;14.30;8.13;;;;;;;;;;5014326;28;20506;-74
2021/04/02 03:01:07;;;;;;;15.67;8.37;;;;;;;;;;5017287;28;20414;-74
2021/04/02 03:03:33;;;;;;;13.40;7.83;;;;;;;;;;5016468;28;20518;-75
2021/04/02 03:06:00;;;;;;;19.37;8.53;;;;;;;;;;5013576;28;20446;-75
2021/04/02 03:08:35;;;;;;;15.20;7.27;;;;;;;;;;5009101;28;20518;-75
2021/04/02 03:11:01;;;;;;;16.47;7.57;;;;;;;;;;5024136;28;20396;-75
2021/04/02 03:13:28;;;;;;;11.00;7.43;;;;;;;;;;5022104;28;20432;-75
2021/04/02 03:15:56;;;;;;;15.67;8.13;;;;;;;;;;5024340;28;20404;-74
2021/04/02 03:18:22;;;;;;;13.43;8.20;;;;;;;;;;5023400;28;20462;-75
2021/04/02 03:20:49;;;;;;;15.07;8.50;;;;;;;;;;5022456;28;20510;-74
2021/04/02 03:23:16;;;;;;;15.97;8.53;;;;;;;;;;5017820;28;20462;-75
2021/04/02 03:25:44;;;;;;;15.93;8.07;;;;;;;;;;5018480;28;20403;-74
2021/04/02 03:28:11;;;;;;;15.77;8.33;;;;;;;;;;5016494;28;20432;-74
2021/04/02 03:30:37;;;;;;;18.73;10.23;;;;;;;;;;5017029;28;20845;-75
2021/04/02 03:33:07;;;;;;;14.10;8.83;;;;;;;;;;5013796;28;22154;-75
2021/04/02 03:35:35;;;;;;;19.70;8.03;;;;;;;;;;5015195;28;20813;-75
2021/04/02 03:38:01;;;;;;;18.57;8.93;;;;;;;;;;5015865;28;20798;-75
2021/04/02 03:40:28;;;;;;;14.20;9.10;;;;;;;;;;5016904;28;20427;-75
2021/04/02 03:42:56;;;;;;;18.97;9.47;;;;;;;;;;5016190;28;20931;-75
2021/04/02 03:45:23;;;;;;;18.70;9.83;;;;;;;;;;5017096;28;20404;-75
2021/04/02 03:47:51;;;;;;;21.40;11.37;;;;;;;;;;5017258;28;20396;-74
2021/04/02 03:50:17;;;;;;;16.03;10.57;;;;;;;;;;5010071;28;20450;-75
2021/04/02 03:52:45;;;;;;;22.27;11.90;;;;;;;;;;5005627;28;20438;-75
2021/04/02 03:55:15;;;;;;;30.63;14.03;;;;;;;;;;5016535;28;20442;-74
2021/04/02 03:57:42;;;;;;;25.00;14.03;;;;;;;;;;5015709;28;20880;-74
2021/04/02 04:00:17;;;;;;;28.23;15.07;;;;;;;;;;5011712;28;20471;-74
2021/04/02 04:02:44;;;;;;;29.23;13.93;;;;;;;;;;4997167;28;20466;-75
2021/04/02 04:05:12;;;;;;;34.40;16.60;;;;;;;;;;5012468;28;20433;-75
2021/04/02 04:07:39;;;;;;;35.93;15.70;;;;;;;;;;5012118;28;20509;-75
2021/04/02 04:10:05;;;;;;;30.77;15.87;;;;;;;;;;5011207;28;20478;-75
2021/04/02 04:12:32;;;;;;;33.50;16.30;;;;;;;;;;5017111;28;20415;-74
2021/04/02 04:15:00;;;;;;;28.50;14.97;;;;;;;;;;5016524;28;20429;-75
2021/04/02 04:17:26;;;;;;;23.17;13.97;;;;;;;;;;5015933;28;20420;-74
2021/04/02 04:19:53;;;;;;;31.23;14.60;;;;;;;;;;5015593;28;20550;-74
2021/04/02 04:22:22;;;;;;;22.50;14.43;;;;;;;;;;5017009;28;20453;-74
2021/04/02 04:24:49;;;;;;;28.27;14.63;;;;;;;;;;5015572;28;20423;-75
2021/04/02 04:27:15;;;;;;;29.00;14.43;;;;;;;;;;5016987;28;20415;-75
2021/04/02 04:29:44;;;;;;;29.27;14.43;;;;;;;;;;5016016;28;20807;-76
2021/04/02 04:32:14;;;;;;;31.03;13.43;;;;;;;;;;5016186;28;20779;-75
2021/04/02 04:34:40;;;;;;;28.60;14.77;;;;;;;;;;5015141;28;20790;-74
2021/04/02 04:37:07;;;;;;;24.10;13.50;;;;;;;;;;5016126;28;20435;-75
2021/04/02 04:39:34;;;;;;;21.43;13.47;;;;;;;;;;5012244;28;20469;-74
2021/04/02 04:42:01;;;;;;;27.03;12.87;;;;;;;;;;5004672;28;20525;-75
2021/04/02 04:44:28;;;;;;;22.30;12.43;;;;;;;;;;5022262;28;20477;-74
2021/04/02 04:46:54;;;;;;;28.93;14.73;;;;;;;;;;5018711;28;20447;-75
2021/04/02 04:49:20;;;;;;;26.80;12.73;;;;;;;;;;5019473;28;20454;-75
2021/04/02 04:51:47;;;;;;;23.77;13.33;;;;;;;;;;5019870;28;20425;-75
2021/04/02 04:54:14;;;;;;;22.80;13.40;;;;;;;;;;5019807;28;20439;-75
2021/04/02 04:56:41;;;;;;;26.07;14.43;;;;;;;;;;5020836;28;20404;-75
2021/04/02 04:59:08;;;;;;;26.73;15.03;;;;;;;;;;5020803;28;20473;-75
2021/04/02 05:01:35;;;;;;;27.40;13.10;;;;;;;;;;5024720;28;20457;-75
2021/04/02 05:04:03;;;;;;;30.73;13.93;;;;;;;;;;5027968;28;20490;-75
2021/04/02 05:06:30;;;;;;;27.30;14.90;;;;;;;;;;5038656;28;20399;-74
2021/04/02 05:08:57;;;;;;;30.90;15.23;;;;;;;;;;5036158;28;20434;-76
2021/04/02 05:11:24;;;;;;;31.00;15.43;;;;;;;;;;5018969;28;20474;-74
2021/04/02 05:13:51;;;;;;;29.03;13.80;;;;;;;;;;5018907;28;20419;-74
2021/04/02 05:16:20;;;;;;;22.97;13.37;;;;;;;;;;5019108;28;20442;-75
2021/04/02 05:18:47;;;;;;;29.63;13.47;;;;;;;;;;5020386;28;20784;-75
2021/04/02 05:21:13;;;;;;;22.50;13.27;;;;;;;;;;5018060;28;20428;-74
2021/04/02 05:23:40;;;;;;;30.60;14.23;;;;;;;;;;5019271;28;20414;-75
2021/04/02 05:26:06;;;;;;;27.97;13.67;;;;;;;;;;5020747;28;20984;-75
2021/04/02 05:28:32;;;;;;;24.03;12.63;;;;;;;;;;5021206;28;20518;-75
2021/04/02 05:30:58;;;;;;;21.77;12.50;;;;;;;;;;5019407;28;20483;-75
2021/04/02 05:33:25;;;;;;;24.90;12.90;;;;;;;;;;5018888;28;20498;-75
2021/04/02 05:35:51;;;;;;;22.30;14.33;;;;;;;;;;5016983;28;20434;-75
2021/04/02 05:38:17;;;;;;;32.73;15.60;;;;;;;;;;5018986;28;20457;-75
2021/04/02 05:40:43;;;;;;;27.27;15.20;;;;;;;;;;5013464;28;20460;-75
2021/04/02 05:43:13;;;;;;;28.07;13.80;;;;;;;;;;4999280;28;20408;-75
2021/04/02 05:45:40;;;;;;;31.57;16.00;;;;;;;;;;5014825;28;20448;-75
2021/04/02 05:48:07;;;;;;;30.10;15.83;;;;;;;;;;5001993;28;20419;-75
2021/04/02 05:50:34;;;;;;;37.97;18.93;;;;;;;;;;5018867;28;20526;-75
2021/04/02 05:53:07;;;;;;;33.87;19.57;;;;;;;;;;5017363;28;20439;-75
2021/04/02 05:55:34;;;;;;;37.50;22.07;;;;;;;;;;5018146;28;20435;-75
2021/04/02 05:58:01;;;;;;;41.30;20.80;;;;;;;;;;5018157;28;20431;-74
2021/04/02 06:00:27;;;;;;;37.60;20.87;;;;;;;;;;5018542;28;20486;-74
2021/04/02 06:02:53;;;;;;;41.00;19.00;;;;;;;;;;5018712;28;20541;-74
2021/04/02 06:05:20;;;;;;;34.30;20.00;;;;;;;;;;5017359;28;20438;-74
2021/04/02 06:07:46;;;;;;;46.10;23.83;;;;;;;;;;5019039;28;20407;-75
2021/04/02 06:10:12;;;;;;;48.60;24.83;;;;;;;;;;5018091;28;20909;-74
2021/04/02 06:12:41;;;;;;;56.73;24.23;;;;;;;;;;5019040;28;20411;-74
2021/04/02 06:15:07;;;;;;;43.53;23.20;;;;;;;;;;5021436;28;20431;-75
2021/04/02 06:17:52;;;;;;;44.67;23.27;;;;;;;;;;5025751;28;20419;-74
2021/04/02 06:20:18;;;;;;;39.10;23.57;;;;;;;;;;5025017;28;20455;-74
2021/04/02 06:22:46;;;;;;;42.60;25.83;;;;;;;;;;5023980;28;20474;-75
2021/04/02 06:25:17;;;;;;;42.63;26.50;;;;;;;;;;5024771;28;20427;-74
2021/04/02 06:27:43;;;;;;;50.17;27.30;;;;;;;;;;5019040;28;20783;-75
2021/04/02 06:30:09;;;;;;;47.57;27.50;;;;;;;;;;5012984;28;20578;-74
2021/04/02 06:32:37;;;;;;;48.40;25.53;;;;;;;;;;5013288;28;20428;-75
2021/04/02 06:35:10;;;;;;;41.37;23.53;;;;;;;;;;5013448;28;20959;-72
2021/04/02 06:37:36;;;;;;;41.20;23.17;;;;;;;;;;5014975;28;20435;-72
2021/04/02 06:40:04;;;;;;;38.70;22.20;;;;;;;;;;5013957;28;20467;-71
2021/04/02 06:42:33;;;;;;;36.27;22.87;;;;;;;;;;5013599;28;20490;-71
2021/04/02 06:45:04;;;;;;;37.40;22.00;;;;;;;;;;5006370;28;20430;-71
2021/04/02 06:47:34;;;;;;;40.87;24.10;;;;;;;;;;5014105;28;20419;-71
2021/04/02 06:50:18;;;;;;;34.87;21.13;;;;;;;;;;5010101;28;20514;-72
2021/04/02 06:52:48;;;;;;;41.93;23.30;;;;;;;;;;5014386;28;20457;-71
2021/04/02 06:55:15;;;;;;;44.00;22.83;;;;;;;;;;5013192;28;20430;-72
2021/04/02 06:57:50;;;;;;;37.80;22.63;;;;;;;;;;5014974;28;20406;-70
2021/04/02 07:00:26;;;;;;;38.13;23.50;;;;;;;;;;5013141;28;20461;-71
2021/04/02 07:02:53;;;;;;;37.60;20.57;;;;;;;;;;5003255;28;20783;-72
2021/04/02 07:05:20;;;;;;;36.83;21.03;;;;;;;;;;4999151;28;20507;-71
2021/04/02 07:07:48;;;;;;;30.93;20.10;;;;;;;;;;4997274;28;20514;-72
2021/04/02 07:10:15;;;;;;;37.60;22.90;;;;;;;;;;5001335;28;20451;-71
2021/04/02 07:12:44;;;;;;;41.10;24.10;;;;;;;;;;5002963;28;20423;-71
2021/04/02 07:15:11;;;;;;;38.77;22.17;;;;;;;;;;4997691;28;20447;-70
2021/04/02 07:17:38;;;;;;;39.27;23.20;;;;;;;;;;4994818;28;20431;-71
2021/04/02 07:20:05;;;;;;;38.40;23.77;;;;;;;;;;5000169;28;20455;-69
2021/04/02 07:22:32;;;;;;;46.30;26.47;;;;;;;;;;5012144;28;20478;-70
2021/04/02 07:25:00;;;;;;;47.37;25.53;;;;;;;;;;4996757;28;20502;-71
2021/04/02 07:27:27;;;;;;;50.07;26.70;;;;;;;;;;5013506;28;20411;-71
2021/04/02 07:29:54;;;;;;;48.50;28.63;;;;;;;;;;5012281;28;20461;-71
2021/04/02 07:32:20;;;;;;;50.53;25.83;;;;;;;;;;5013479;28;20783;-71
2021/04/02 07:34:46;;;;;;;51.70;26.30;;;;;;;;;;5007935;28;20419;-70
2021/04/02 07:37:12;;;;;;;54.30;28.17;;;;;;;;;;5012185;28;20446;-71
2021/04/02 07:39:38;;;;;;;48.83;28.93;;;;;;;;;;5013425;28;20493;-72
2021/04/02 07:42:05;;;;;;;53.70;26.93;;;;;;;;;;5012969;28;20450;-70
2021/04/02 07:44:37;;;;;;;51.33;27.30;;;;;;;;;;5012841;28;20407;-71
2021/04/02 07:47:03;;;;;;;52.67;30.40;;;;;;;;;;5011988;28;20453;-71
2021/04/02 07:49:31;;;;;;;53.90;27.80;;;;;;;;;;5012395;28;20927;-70
2021/04/02 07:51:57;;;;;;;53.13;28.50;;;;;;;;;;5009506;28;20431;-70
2021/04/02 07:54:27;;;;;;;53.23;27.07;;;;;;;;;;5013557;28;20507;-71
2021/04/02 07:56:56;;;;;;;48.40;27.07;;;;;;;;;;5012769;28;20429;-70
2021/04/02 07:59:34;;;;;;;56.97;28.57;;;;;;;;;;5015619;28;20459;-70
2021/04/02 08:02:03;;;;;;;54.40;28.40;;;;;;;;;;5013170;28;20427;-70
2021/04/02 08:04:40;;;;;;;52.10;28.10;;;;;;;;;;5014129;28;20415;-71
2021/04/02 08:07:16;;;;;;;51.37;27.00;;;;;;;;;;5013041;28;20430;-70
2021/04/02 08:09:50;;;;;;;50.73;26.20;;;;;;;;;;5013607;28;20435;-69
2021/04/02 08:12:16;;;;;;;39.80;26.17;;;;;;;;;;5012695;28;20454;-71
2021/04/02 08:14:47;;;;;;;41.00;26.17;;;;;;;;;;5014250;28;20802;-71
2021/04/02 08:17:17;;;;;;;36.27;22.90;;;;;;;;;;5014625;28;20480;-70
2021/04/02 08:19:43;;;;;;;44.50;24.20;;;;;;;;;;5019034;28;20458;-71
2021/04/02 08:22:19;;;;;;;41.43;24.00;;;;;;;;;;5016688;28;20847;-69
2021/04/02 08:24:46;;;;;;;42.00;23.73;;;;;;;;;;5004925;28;20860;-72
2021/04/02 08:27:13;;;;;;;37.70;22.73;;;;;;;;;;5010038;28;21024;-74
2021/04/02 08:29:40;;;;;;;38.83;22.43;;;;;;;;;;5013637;28;20473;-75
2021/04/02 08:32:08;;;;;;;40.33;22.70;;;;;;;;;;5016504;28;20426;-74
2021/04/02 08:34:35;;;;;;;34.57;22.53;;;;;;;;;;5017643;28;20412;-74
2021/04/02 08:37:02;;;;;;;38.17;23.07;;;;;;;;;;5009617;28;20533;-76
2021/04/02 08:39:28;;;;;;;33.93;21.47;;;;;;;;;;5016622;28;20463;-75
2021/04/02 08:41:56;;;;;;;37.43;22.30;;;;;;;;;;5015572;28;20769;-75
2021/04/02 08:44:28;;;;;;;32.83;21.00;;;;;;;;;;5017376;28;20443;-76
2021/04/02 08:46:57;;;;;;;34.60;21.70;;;;;;;;;;5016139;28;20423;-76
2021/04/02 08:49:23;;;;;;;37.93;22.63;;;;;;;;;;5003836;28;20448;-76
2021/04/02 08:51:49;;;;;;;46.00;26.20;;;;;;;;;;5011604;28;20426;-75
2021/04/02 08:54:19;;;;;;;38.57;23.17;;;;;;;;;;5002780;28;20428;-76
2021/04/02 08:56:45;;;;;;;40.53;22.10;;;;;;;;;;5012473;28;20427;-76
2021/04/02 08:59:12;;;;;;;37.33;21.33;;;;;;;;;;5012147;28;20993;-75
2021/04/02 09:01:45;;;;;;;35.70;23.00;;;;;;;;;;5010105;28;20419;-76
2021/04/02 09:04:12;;;;;;;37.50;22.77;;;;;;;;;;5016664;28;20408;-76
2021/04/02 09:06:38;;;;;;;42.83;24.80;;;;;;;;;;5016676;28;20423;-75
2021/04/02 09:09:13;;;;;;;44.17;25.20;;;;;;;;;;5015958;28;20438;-76
2021/04/02 09:11:39;;;;;;;48.97;27.90;;;;;;;;;;5016150;28;20862;-76
2021/04/02 09:14:08;;;;;;;45.50;24.67;;;;;;;;;;5016794;28;20400;-75
2021/04/02 09:16:36;;;;;;;39.83;24.50;;;;;;;;;;5016427;28;20424;-77
2021/04/02 09:19:02;;;;;;;42.87;23.30;;;;;;;;;;5016599;28;20996;-75
2021/04/02 09:21:29;;;;;;;43.03;25.50;;;;;;;;;;5015449;28;20427;-75
2021/04/02 09:23:55;;;;;;;41.57;22.23;;;;;;;;;;5016763;28;20436;-76
2021/04/02 09:26:22;;;;;;;46.60;24.47;;;;;;;;;;5015830;28;20416;-75
2021/04/02 09:28:48;;;;;;;46.23;21.97;;;;;;;;;;5015693;28;20987;-76
2021/04/02 09:31:16;;;;;;;35.47;21.83;;;;;;;;;;5008057;28;20502;-76
2021/04/02 09:33:42;;;;;;;36.90;22.63;;;;;;;;;;4997457;28;20463;-76
2021/04/02 09:36:10;;;;;;;37.60;22.40;;;;;;;;;;5003094;28;20911;-75
2021/04/02 09:38:36;;;;;;;36.37;22.70;;;;;;;;;;5016638;28;20458;-76
2021/04/02 09:41:02;;;;;;;36.53;21.10;;;;;;;;;;5015129;28;20436;-75
2021/04/02 09:43:42;;;;;;;36.93;21.47;;;;;;;;;;5015239;28;20768;-76
2021/04/02 09:46:08;;;;;;;34.50;22.00;;;;;;;;;;5015147;28;20419;-75
2021/04/02 09:48:37;;;;;;;33.03;20.57;;;;;;;;;;5015749;28;20404;-76
2021/04/02 09:51:06;;;;;;;38.30;21.80;;;;;;;;;;5015203;28;20490;-76
2021/04/02 09:53:32;;;;;;;32.87;21.10;;;;;;;;;;5016135;28;20411;-76
2021/04/02 09:55:59;;;;;;;38.73;21.20;;;;;;;;;;5014522;28;20792;-76
2021/04/02 09:58:25;;;;;;;39.30;23.53;;;;;;;;;;5017576;28;20403;-76
2021/04/02 10:00:51;;;;;;;38.50;23.20;;;;;;;;;;5015476;28;20426;-76
2021/04/02 10:03:17;;;;;;;41.83;23.60;;;;;;;;;;5015980;28;20495;-75
2021/04/02 10:05:43;;;;;;;43.37;22.00;;;;;;;;;;5014902;28;20799;-76
2021/04/02 10:08:10;;;;;;;39.93;24.90;;;;;;;;;;5015911;28;20915;-77
2021/04/02 10:10:36;;;;;;;41.97;22.27;;;;;;;;;;5015280;28;20786;-76
2021/04/02 10:13:02;;;;;;;44.83;22.70;;;;;;;;;;5015641;28;20422;-76
2021/04/02 10:15:28;;;;;;;45.53;24.80;;;;;;;;;;5015717;28;20790;-76
2021/04/02 10:17:54;;;;;;;42.07;23.27;;;;;;;;;;5009328;28;20446;-76
2021/04/02 10:20:20;;;;;;;40.23;23.23;;;;;;;;;;5015666;28;20470;-75
2021/04/02 10:22:46;;;;;;;44.90;23.90;;;;;;;;;;5014778;28;20431;-75
2021/04/02 10:25:12;;;;;;;42.97;26.00;;;;;;;;;;5015690;28;20906;-76
2021/04/02 10:27:38;;;;;;;41.97;22.60;;;;;;;;;;5014826;28;20799;-76
2021/04/02 10:30:05;;;;;;;39.33;22.63;;;;;;;;;;5014217;28;20991;-76
2021/04/02 10:32:32;;;;;;;39.47;22.23;;;;;;;;;;5015115;28;20435;-76
2021/04/02 10:34:58;;;;;;;40.00;22.33;;;;;;;;;;5015665;28;20518;-76
2021/04/02 10:37:25;;;;;;;35.13;21.97;;;;;;;;;;5014463;28;20465;-75
2021/04/02 10:39:51;;;;;;;35.33;21.37;;;;;;;;;;5015371;28;20463;-76
2021/04/02 10:42:17;;;;;;;34.70;21.57;;;;;;;;;;5014937;28;20451;-76
2021/04/02 10:44:44;;;;;;;38.80;21.97;;;;;;;;;;5015291;28;20407;-76
2021/04/02 10:47:11;;;;;;;34.13;21.27;;;;;;;;;;5014077;28;20871;-75
2021/04/02 10:49:40;;;;;;;38.97;22.20;;;;;;;;;;5014568;28;20448;-76
2021/04/02 10:52:06;;;;;;;40.13;21.67;;;;;;;;;;5013833;28;20510;-75
2021/04/02 10:54:32;;;;;;;42.17;23.40;;;;;;;;;;5015288;28;20426;-74
2021/04/02 10:56:58;;;;;;;37.93;21.53;;;;;;;;;;5014258;28;20514;-74
2021/04/02 10:59:24;;;;;;;33.43;21.07;;;;;;;;;;5014935;28;20487;-75
2021/04/02 11:01:50;;;;;;;30.63;19.87;;;;;;;;;;5012993;28;20423;-75
2021/04/02 11:04:16;;;;;;;30.60;19.83;;;;;;;;;;5013366;28;20400;-75
2021/04/02 11:06:42;;;;;;;33.03;21.07;;;;;;;;;;5013642;28;20441;-74
2021/04/02 11:09:09;;;;;;;35.40;20.70;;;;;;;;;;5014373;28;20434;-75
2021/04/02 11:11:35;;;;;;;30.70;19.00;;;;;;;;;;5013595;28;20422;-75
2021/04/02 11:14:01;;;;;;;37.30;20.60;;;;;;;;;;5012866;28;20928;-75
2021/04/02 11:16:27;;;;;;;30.13;19.07;;;;;;;;;;5013236;28;20510;-75
2021/04/02 11:18:53;;;;;;;29.37;19.03;;;;;;;;;;5014105;28;20543;-75
2021/04/02 11:21:19;;;;;;;28.00;18.60;;;;;;;;;;5013197;28;20460;-75
2021/04/02 11:23:45;;;;;;;27.40;18.27;;;;;;;;;;5013644;28;20424;-74
2021/04/02 11:26:12;;;;;;;27.90;19.50;;;;;;;;;;5013432;28;20403;-75
2021/04/02 11:28:39;;;;;;;27.87;18.73;;;;;;;;;;5013093;28;20419;-75
2021/04/02 11:31:05;;;;;;;28.07;18.50;;;;;;;;;;5013632;28;20408;-74
2021/04/02 11:33:31;;;;;;;28.10;18.70;;;;;;;;;;5013996;28;20415;-76
2021/04/02 11:35:57;;;;;;;27.87;16.87;;;;;;;;;;5014126;28;20408;-75
2021/04/02 11:38:23;;;;;;;30.30;17.87;;;;;;;;;;5013962;28;20471;-76
2021/04/02 11:40:49;;;;;;;28.00;18.20;;;;;;;;;;5014595;28;20477;-75
2021/04/02 11:43:15;;;;;;;24.93;17.23;;;;;;;;;;5013305;28;20436;-75
2021/04/02 11:45:41;;;;;;;26.33;16.63;;;;;;;;;;5013685;28;20392;-75
2021/04/02 11:48:08;;;;;;;27.33;17.60;;;;;;;;;;5013140;28;20485;-75
2021/04/02 11:50:34;;;;;;;26.93;17.40;;;;;;;;;;5014371;28;20424;-74
2021/04/02 11:53:00;;;;;;;23.87;16.57;;;;;;;;;;5012322;28;20937;-75
2021/04/02 11:55:26;;;;;;;28.27;17.70;;;;;;;;;;5014139;28;20410;-74
2021/04/02 11:57:52;;;;;;;29.77;17.17;;;;;;;;;;5012761;28;20431;-75
2021/04/02 12:00:19;;;;;;;27.90;16.83;;;;;;;;;;5014718;28;20854;-75
2021/04/02 12:02:45;;;;;;;25.17;16.37;;;;;;;;;;5013303;28;20439;-74
2021/04/02 12:05:11;;;;;;;25.57;15.00;;;;;;;;;;5013897;28;20407;-75
2021/04/02 12:07:37;;;;;;;23.37;15.00;;;;;;;;;;5012849;28;20435;-74
2021/04/02 12:10:04;;;;;;;22.13;14.83;;;;;;;;;;5013931;28;20419;-75
2021/04/02 12:12:30;;;;;;;22.50;15.80;;;;;;;;;;5013243;28;20438;-75
2021/04/02 12:14:56;;;;;;;21.93;16.37;;;;;;;;;;5013951;28;20412;-75
2021/04/02 12:17:22;;;;;;;23.60;14.87;;;;;;;;;;5012884;28;20920;-75
2021/04/02 12:19:49;;;;;;;20.90;15.30;;;;;;;;;;5013401;28;20452;-74
2021/04/02 12:22:15;;;;;;;26.70;15.77;;;;;;;;;;5012843;28;20446;-75
2021/04/02 12:24:41;;;;;;;25.27;15.70;;;;;;;;;;5014330;28;20411;-76
2021/04/02 12:27:07;;;;;;;22.67;15.40;;;;;;;;;;5013886;28;20427;-76
2021/04/02 12:29:34;;;;;;;25.60;15.20;;;;;;;;;;5013229;28;20557;-75
2021/04/02 12:32:00;;;;;;;22.47;16.93;;;;;;;;;;5012852;28;20849;-76
2021/04/02 12:34:26;;;;;;;20.60;14.23;;;;;;;;;;5013366;28;20416;-76
2021/04/02 12:36:52;;;;;;;20.90;14.63;;;;;;;;;;5012380;28;20431;-77
2021/04/02 12:39:18;;;;;;;25.80;15.17;;;;;;;;;;5008964;28;20551;-76
2021/04/02 12:41:44;;;;;;;26.37;16.37;;;;;;;;;;5006663;28;20463;-74
2021/04/02 12:44:10;;;;;;;28.30;16.40;;;;;;;;;;5013719;28;20410;-75
2021/04/02 12:46:36;;;;;;;24.40;17.80;;;;;;;;;;5013169;28;20453;-72
2021/04/02 12:49:02;;;;;;;21.93;16.00;;;;;;;;;;5013623;28;20515;-75
2021/04/02 12:51:28;;;;;;;23.17;16.07;;;;;;;;;;5012710;28;20428;-74
2021/04/02 12:53:54;;;;;;;27.73;17.50;;;;;;;;;;5010240;28;20439;-77
2021/04/02 12:56:20;;;;;;;23.33;15.90;;;;;;;;;;5001207;28;20450;-77
2021/04/02 12:58:46;;;;;;;23.60;16.00;;;;;;;;;;5010875;28;20498;-76
2021/04/02 13:01:12;;;;;;;22.70;14.77;;;;;;;;;;5013302;28;20416;-77
2021/04/02 13:03:40;;;;;;;25.77;16.80;;;;;;;;;;5005128;28;20519;-78
2021/04/02 13:06:07;;;;;;;23.60;14.47;;;;;;;;;;4997952;28;20883;-74
2021/04/02 13:08:33;;;;;;;24.90;15.93;;;;;;;;;;5012575;28;21011;-74
2021/04/02 13:11:00;;;;;;;22.20;14.27;;;;;;;;;;5005823;28;20454;-75
2021/04/02 13:13:26;;;;;;;25.50;16.70;;;;;;;;;;5006364;28;20526;-75
2021/04/02 13:15:53;;;;;;;22.90;16.57;;;;;;;;;;5001302;28;20503;-74
2021/04/02 13:18:19;;;;;;;22.40;15.50;;;;;;;;;;5008564;28;20430;-75
2021/04/02 13:20:45;;;;;;;20.70;15.17;;;;;;;;;;5014654;28;20424;-75
2021/04/02 13:23:11;;;;;;;21.30;14.43;;;;;;;;;;5012844;28;20438;-74
2021/04/02 13:25:37;;;;;;;22.43;14.40;;;;;;;;;;5015985;28;20545;-74
2021/04/02 13:28:03;;;;;;;23.70;14.30;;;;;;;;;;5015834;28;20525;-73
2021/04/02 13:30:30;;;;;;;19.90;13.10;;;;;;;;;;5015217;28;20449;-74
2021/04/02 13:32:57;;;;;;;20.67;12.63;;;;;;;;;;5014611;28;20430;-75
2021/04/02 13:35:25;;;;;;;19.30;13.50;;;;;;;;;;5000415;28;20431;-73
2021/04/02 13:37:52;;;;;;;17.83;12.37;;;;;;;;;;5013074;28;20558;-74
2021/04/02 13:40:18;;;;;;;23.30;13.60;;;;;;;;;;5012313;28;20529;-75
2021/04/02 13:42:44;;;;;;;19.57;13.23;;;;;;;;;;5009173;28;20428;-74
2021/04/02 13:45:11;;;;;;;22.00;13.57;;;;;;;;;;5008093;28;20914;-74
2021/04/02 13:47:38;;;;;;;20.70;13.30;;;;;;;;;;5007569;28;20457;-77
2021/04/02 13:50:05;;;;;;;17.07;12.33;;;;;;;;;;5015292;28;20420;-74
2021/04/02 13:52:32;;;;;;;15.83;11.57;;;;;;;;;;5013798;28;20431;-73
2021/04/02 13:54:58;;;;;;;21.20;12.67;;;;;;;;;;5011367;28;20419;-74
2021/04/02 13:57:24;;;;;;;21.13;13.03;;;;;;;;;;5014307;28;20511;-75
2021/04/02 13:59:50;;;;;;;19.03;12.47;;;;;;;;;;5012124;28;20830;-74
2021/04/02 14:02:16;;;;;;;15.70;11.13;;;;;;;;;;5015510;28;20426;-74
2021/04/02 14:04:42;;;;;;;23.27;13.27;;;;;;;;;;5015038;28;20427;-74
2021/04/02 14:07:08;;;;;;;23.30;12.77;;;;;;;;;;5015732;28;20408;-74
2021/04/02 14:09:34;;;;;;;19.20;12.00;;;;;;;;;;5015016;28;20896;-75
2021/04/02 14:12:01;;;;;;;17.67;12.50;;;;;;;;;;5015677;28;20889;-73
2021/04/02 14:14:27;;;;;;;18.57;12.53;;;;;;;;;;5013045;28;20428;-74
2021/04/02 14:16:54;;;;;;;16.57;11.40;;;;;;;;;;5014750;28;20847;-73
2021/04/02 14:19:20;;;;;;;19.60;11.90;;;;;;;;;;5014036;28;20479;-74
2021/04/02 14:21:48;;;;;;;16.23;11.33;;;;;;;;;;5015236;28;20469;-74